Time;durP1;ratioP1;P1;durP2;ratioP2;P2;SDS_P1;SDS_P2;PMS_P1;PMS_P2;Temp;Humidity;BMP_temperature;BMP_pressure;BME280_temperature;BME280_humidity;BME280_pressure;Samples;Min_cycle;Max_cycle;Signal;HPM_P1;HPM_P2
2023/01/07 00:01:48;;;;;;;6.00;2.50;;;;;;;17.10;63.54;97092.84;10372880;28;20042;-26
2023/01/07 00:06:49;;;;;;;3.83;2.63;;;;;;;17.10;63.32;97090.31;10368491;28;20116;-26
2023/01/07 00:11:49;;;;;;;6.03;2.60;;;;;;;17.11;63.34;97089.47;10373132;28;20033;-28
2023/01/07 00:16:50;;;;;;;4.63;3.00;;;;;;;17.09;63.17;97082.69;10362265;28;20296;-28
2023/01/07 00:21:50;;;;;;;3.93;2.40;;;;;;;17.10;63.32;97079.31;10371590;28;20044;-27
2023/01/07 00:26:50;;;;;;;5.27;2.60;;;;;;;17.09;63.51;97075.09;10372788;28;20034;-27
2023/01/07 00:31:52;;;;;;;4.67;2.63;;;;;;;17.08;63.41;97076.78;10372098;28;20030;-26
2023/01/07 00:37:48;;;;;;;4.53;2.72;;;;;;;17.11;63.46;97065.84;10373044;28;20116;-26
2023/01/07 00:47:32;;;;;;;3.97;2.58;;;;;;;17.19;62.53;97054.13;10365353;28;20033;-28
2023/01/07 00:52:33;;;;;;;4.43;2.80;;;;;;;17.13;63.48;97049.00;10372986;28;20099;-25
2023/01/07 00:57:33;;;;;;;7.63;3.08;;;;;;;17.12;63.31;97049.81;10371284;28;20422;-25
2023/01/07 01:02:34;;;;;;;5.30;2.75;;;;;;;17.10;63.30;97044.78;10385603;28;20026;-26
2023/01/07 01:07:35;;;;;;;3.87;2.17;;;;;;;17.09;63.27;97042.22;10364456;28;20406;-27
2023/01/07 01:12:35;;;;;;;5.53;2.40;;;;;;;17.06;63.40;97027.84;10370058;28;20459;-26
2023/01/07 01:17:36;;;;;;;5.47;3.55;;;;;;;17.07;63.75;97023.66;10371746;28;20094;-27
2023/01/07 01:22:37;;;;;;;3.97;2.35;;;;;;;17.05;63.36;97030.34;10361341;28;20086;-25
2023/01/07 01:27:38;;;;;;;5.93;2.55;;;;;;;17.05;63.85;97026.16;10373462;28;20098;-26
2023/01/07 01:32:38;;;;;;;4.40;2.80;;;;;;;17.06;63.37;97019.44;10369015;28;20109;-28
2023/01/07 01:37:39;;;;;;;4.35;2.38;;;;;;;17.06;63.48;97012.69;10366292;28;20026;-27
2023/01/07 01:42:40;;;;;;;4.03;2.92;;;;;;;17.05;63.40;97005.06;10381120;28;20374;-25
2023/01/07 01:47:48;;;;;;;4.22;2.25;;;;;;;17.07;63.86;97008.47;10367499;28;20026;-27
2023/01/07 01:52:58;;;;;;;3.45;2.28;;;;;;;17.12;64.04;97005.16;10383319;28;20037;-26
2023/01/07 01:58:05;;;;;;;4.38;2.67;;;;;;;17.15;63.83;97006.88;10382127;28;20029;-25
2023/01/07 02:03:08;;;;;;;3.70;1.85;;;;;;;17.11;63.46;97000.94;10370805;28;20026;-26
2023/01/07 02:08:09;;;;;;;4.65;2.67;;;;;;;17.08;63.63;96995.00;10367905;28;20042;-26
2023/01/07 02:13:36;;;;;;;3.40;2.42;;;;;;;17.07;63.33;96985.72;10367214;28;20084;-27
2023/01/07 02:18:48;;;;;;;3.45;2.20;;;;;;;17.05;63.46;96979.75;10374331;28;20057;-26
2023/01/07 02:24:33;;;;;;;3.33;1.98;;;;;;;17.05;63.31;96974.72;10378417;28;20032;-27
2023/01/07 02:29:40;;;;;;;3.92;2.15;;;;;;;17.03;63.41;96976.38;10375733;28;20528;-26
2023/01/07 02:34:54;;;;;;;;;;;;;;;17.02;63.54;96962.03;10372670;28;20097;-27
2023/01/07 02:40:23;;;;;;;3.78;2.17;;;;;;;16.97;63.43;96958.59;10391611;28;19913;-25
2023/01/07 02:45:44;;;;;;;3.20;2.03;;;;;;;17.02;63.54;96962.03;10367876;28;20497;-27
2023/01/07 02:50:45;;;;;;;2.88;2.33;;;;;;;17.01;63.49;96950.22;10354467;28;20030;-26
2023/01/07 02:56:24;;;;;;;3.67;1.92;;;;;;;17.00;63.58;96956.13;10377924;28;20425;-26
2023/01/07 03:01:48;;;;;;;2.95;1.77;;;;;;;17.05;63.79;96934.25;10379754;28;20452;-25
2023/01/07 03:07:16;;;;;;;4.95;2.45;;;;;;;17.11;63.83;96929.25;10370649;28;20026;-26
2023/01/07 03:12:44;;;;;;;3.85;1.85;;;;;;;17.10;63.03;96917.44;10378661;28;20034;-27
2023/01/07 03:17:58;;;;;;;4.22;2.03;;;;;;;17.05;63.15;96902.22;10371882;28;20029;-26
2023/01/07 03:23:02;;;;;;;3.53;2.15;;;;;;;17.04;63.31;96899.66;10369158;28;20429;-26
2023/01/07 03:28:05;;;;;;;2.42;1.75;;;;;;;17.02;63.43;96893.75;10401283;28;20064;-27
2023/01/07 03:33:20;;;;;;;3.53;1.85;;;;;;;17.03;63.00;96890.38;10388672;28;20469;-26
2023/01/07 03:38:22;;;;;;;3.47;1.98;;;;;;;17.00;63.08;96881.09;10380190;28;20034;-26
2023/01/07 03:43:23;;;;;;;4.68;2.00;;;;;;;16.99;63.71;96878.56;10364243;28;20418;-28
2023/01/07 03:48:24;;;;;;;2.65;1.77;;;;;;;17.00;63.27;96880.25;10379995;28;20038;-26
2023/01/07 03:53:25;;;;;;;2.22;1.52;;;;;;;16.97;63.18;96878.53;10373240;28;20033;-26
2023/01/07 03:58:25;;;;;;;3.40;2.17;;;;;;;16.95;63.48;96864.19;10387019;28;20029;-27
2023/01/07 04:03:26;;;;;;;2.70;1.70;;;;;;;16.98;63.32;96862.53;10374721;28;20299;-26
2023/01/07 04:08:26;;;;;;;3.95;2.00;;;;;;;16.99;63.22;96863.38;10372226;28;20034;-27
2023/01/07 04:13:27;;;;;;;2.38;1.98;;;;;;;17.03;63.93;96862.56;10370987;28;20030;-26
2023/01/07 04:18:27;;;;;;;2.80;1.70;;;;;;;17.09;63.79;96857.56;10372986;28;20065;-25
2023/01/07 04:23:28;;;;;;;3.83;1.75;;;;;;;17.07;63.60;96849.94;10374106;28;20038;-25
2023/01/07 04:28:29;;;;;;;4.30;1.88;;;;;;;17.03;63.47;96854.97;10391596;28;20038;-27
2023/01/07 04:33:30;;;;;;;2.95;1.77;;;;;;;17.00;63.30;96845.69;10359179;28;20038;-26
2023/01/07 04:38:31;;;;;;;3.22;1.77;;;;;;;17.01;63.33;96851.59;10376896;28;20410;-26
2023/01/07 04:43:31;;;;;;;2.63;1.48;;;;;;;17.01;63.02;96844.00;10388185;28;20522;-27
2023/01/07 04:48:32;;;;;;;2.53;1.73;;;;;;;16.97;63.32;96833.03;10396958;28;20029;-25
2023/01/07 04:53:33;;;;;;;2.63;1.77;;;;;;;17.00;63.48;96834.72;10390227;28;20039;-26
2023/01/07 04:58:35;;;;;;;2.60;1.80;;;;;;;17.00;63.51;96834.72;10377881;28;20037;-30
2023/01/07 05:03:36;;;;;;;2.10;1.40;;;;;;;16.99;63.90;96838.09;10380413;28;20064;-26
2023/01/07 05:08:37;;;;;;;2.17;1.50;;;;;;;17.02;63.21;96833.91;10365715;28;20071;-27
2023/01/07 05:13:39;;;;;;;2.20;1.52;;;;;;;17.02;63.47;96828.00;10366996;28;20042;-27
2023/01/07 05:18:39;;;;;;;3.47;1.52;;;;;;;17.00;63.16;96814.50;10375438;28;20037;-25
2023/01/07 05:23:40;;;;;;;2.25;1.20;;;;;;;17.05;62.71;96806.09;10377838;28;20037;-26
2023/01/07 05:28:41;;;;;;;1.80;1.40;;;;;;;17.11;63.07;96808.69;10380030;28;20319;-26
2023/01/07 05:33:42;;;;;;;3.50;1.98;;;;;;;17.08;62.46;96800.22;10383801;28;20030;-26
2023/01/07 05:38:43;;;;;;;2.45;1.27;;;;;;;17.10;62.54;96803.59;10378145;28;20034;-26
2023/01/07 05:43:44;;;;;;;2.70;1.65;;;;;;;17.06;63.21;96799.38;10388776;28;20716;-27
2023/01/07 05:48:45;;;;;;;1.80;1.30;;;;;;;17.01;63.39;96799.34;10385082;28;20033;-27
2023/01/07 05:53:45;;;;;;;2.00;1.27;;;;;;;17.02;63.10;96793.44;10371615;28;20303;-26
2023/01/07 05:58:45;;;;;;;3.00;1.67;;;;;;;16.99;63.33;96798.47;10377706;28;20043;-27
2023/01/07 06:03:46;;;;;;;4.87;1.30;;;;;;;16.99;63.34;96790.88;10386657;28;20284;-27
2023/01/07 06:08:46;;;;;;;3.50;1.70;;;;;;;16.98;63.45;96791.72;10387006;28;20021;-26
2023/01/07 06:13:46;;;;;;;2.80;1.60;;;;;;;17.05;62.74;96795.13;10376804;28;20037;-26
2023/01/07 06:18:47;;;;;;;3.00;1.40;;;;;;;17.05;62.63;96795.97;10360751;28;20034;-27
2023/01/07 06:23:47;;;;;;;2.37;1.40;;;;;;;17.06;62.59;96794.31;10387761;28;20356;-27
2023/01/07 06:28:47;;;;;;;1.37;1.20;;;;;;;17.08;62.31;96792.63;10382064;28;20088;-26
2023/01/07 06:33:48;;;;;;;2.00;1.33;;;;;;;17.09;62.44;96794.31;10372655;28;20292;-26
2023/01/07 06:38:48;;;;;;;1.70;1.20;;;;;;;17.16;61.68;96784.25;10374681;28;20087;-26
2023/01/07 06:43:48;;;;;;;2.15;1.20;;;;;;;17.17;61.89;96775.81;10387219;28;20516;-25
2023/01/07 06:48:49;;;;;;;1.93;1.20;;;;;;;17.21;61.70;96776.69;10384447;28;20220;-26
2023/01/07 06:53:49;;;;;;;3.27;1.20;;;;;;;17.19;61.79;96766.56;10372223;28;20071;-26
2023/01/07 06:58:50;;;;;;;1.63;1.13;;;;;;;17.16;62.06;96761.47;10378191;28;20800;-27
2023/01/07 07:03:50;;;;;;;2.72;1.10;;;;;;;17.14;62.51;96757.25;10356905;28;20296;-26
2023/01/07 07:08:50;;;;;;;3.30;1.70;;;;;;;17.13;62.21;96756.41;10348577;28;20093;-27
2023/01/07 07:13:51;;;;;;;1.83;1.23;;;;;;;17.17;62.28;96762.34;10363684;28;20037;-26
2023/01/07 07:18:52;;;;;;;2.13;1.23;;;;;;;17.20;61.99;96762.34;10364985;28;20045;-27
2023/01/07 07:23:52;;;;;;;1.55;1.10;;;;;;;17.26;60.99;96770.81;10343847;28;20123;-26
2023/01/07 07:28:52;;;;;;;1.40;0.80;;;;;;;17.28;61.15;96780.94;10350950;28;20034;-26
2023/01/07 07:33:53;;;;;;;4.30;1.30;;;;;;;17.25;61.49;96775.88;10343862;28;20041;-27
2023/01/07 07:38:53;;;;;;;2.50;1.20;;;;;;;17.22;61.74;96776.69;10345364;28;20037;-27
2023/01/07 07:43:54;;;;;;;1.52;0.95;;;;;;;17.15;62.03;96774.13;10352273;28;20038;-26
2023/01/07 07:48:54;;;;;;;3.00;0.90;;;;;;;17.22;60.35;96784.28;10357256;28;20052;-25
2023/01/07 07:53:54;;;;;;;3.87;1.80;;;;;;;17.27;61.26;96774.19;10359890;28;20520;-27
2023/01/07 07:58:55;;;;;;;5.60;1.43;;;;;;;17.22;60.93;96760.66;10352629;28;20185;-25
2023/01/07 08:03:55;;;;;;;2.30;1.90;;;;;;;17.15;61.39;96764.84;10350989;28;20042;-26
2023/01/07 08:08:55;;;;;;;2.60;1.53;;;;;;;16.86;60.29;96757.91;10362676;28;20037;-26
2023/01/07 08:13:56;;;;;;;2.27;1.60;;;;;;;16.94;61.34;96748.69;10350595;28;20603;-27
2023/01/07 08:18:56;;;;;;;3.30;1.23;;;;;;;17.03;59.23;96729.38;10363966;28;20119;-26
2023/01/07 08:23:56;;;;;;;3.07;1.20;;;;;;;17.04;60.99;96727.69;10364392;28;20030;-25
2023/01/07 08:28:57;;;;;;;3.60;1.63;;;;;;;17.04;61.06;96720.09;10371750;28;20038;-27
2023/01/07 08:33:58;;;;;;;1.98;1.50;;;;;;;17.11;58.57;96711.69;10347443;28;20132;-25
2023/01/07 08:38:58;;;;;;;3.53;1.80;;;;;;;16.95;57.83;96705.72;10362282;28;20571;-26
2023/01/07 08:43:58;;;;;;;6.13;1.50;;;;;;;17.15;57.92;96709.19;10370897;28;20288;-26
2023/01/07 08:48:59;;;;;;;3.70;1.40;;;;;;;17.24;57.30;96698.28;10351695;28;20125;-25
2023/01/07 08:53:59;;;;;;;5.05;1.70;;;;;;;17.24;57.05;96695.75;10360032;28;20628;-26
2023/01/07 08:59:00;;;;;;;19.00;3.23;;;;;;;17.34;58.00;96695.78;10354097;28;20398;-27
2023/01/07 09:04:00;;;;;;;15.77;3.73;;;;;;;17.36;58.01;96694.16;10348996;28;20509;-26
2023/01/07 09:09:00;;;;;;;10.57;2.97;;;;;;;17.36;57.19;96685.69;10377232;28;20041;-25
2023/01/07 09:14:01;;;;;;;8.57;2.67;;;;;;;17.30;58.14;96678.91;10376929;28;20400;-26
2023/01/07 09:19:01;;;;;;;6.90;2.97;;;;;;;17.26;59.39;96676.34;10355371;28;20141;-26
2023/01/07 09:24:01;;;;;;;5.97;2.13;;;;;;;17.23;56.80;96681.41;10358458;28;20030;-25
2023/01/07 09:29:02;;;;;;;4.17;1.50;;;;;;;17.29;56.05;96677.22;10347312;28;20038;-27
2023/01/07 09:34:03;;;;;;;8.18;1.83;;;;;;;17.31;56.12;96673.00;10367572;28;20048;-26
2023/01/07 09:39:03;;;;;;;4.18;1.77;;;;;;;17.33;56.53;96670.50;10355392;28;20041;-25
2023/01/07 09:44:14;;;;;;;4.72;1.50;;;;;;;17.32;56.68;96676.38;10361433;28;20445;-25
2023/01/07 09:49:18;;;;;;;2.45;1.27;;;;;;;17.04;56.45;96669.50;10373913;28;20409;-26
2023/01/07 09:54:31;;;;;;;4.00;1.38;;;;;;;17.19;55.58;96669.56;10372389;28;20321;-26
2023/01/07 09:59:32;;;;;;;13.15;4.30;;;;;;;17.17;57.08;96656.09;10355954;28;20490;-28
2023/01/07 10:04:49;;;;;;;6.95;2.28;;;;;;;17.22;57.59;96646.81;10367025;28;20034;-25
2023/01/07 10:09:58;;;;;;;5.47;2.45;;;;;;;17.24;57.18;96648.50;10380381;28;20228;-26
2023/01/07 10:15:19;;;;;;;5.07;2.50;;;;;;;17.31;56.85;96636.75;10371568;28;20037;-27
2023/01/07 10:20:36;;;;;;;5.15;2.10;;;;;;;17.36;56.97;96624.97;10379431;28;20026;-25
2023/01/07 10:25:49;;;;;;;6.95;2.88;;;;;;;17.27;56.96;96600.47;10366292;28;20120;-26
2023/01/07 10:30:52;;;;;;;10.13;2.28;;;;;;;17.27;57.03;96592.03;10377544;28;20036;-26
2023/01/07 10:36:02;;;;;;;8.85;2.15;;;;;;;17.20;59.99;96593.69;10353519;28;20042;-27
2023/01/07 10:41:14;;;;;;;10.93;3.17;;;;;;;17.17;59.85;96570.06;10372773;28;20044;-27
2023/01/07 10:46:29;;;;;;;13.52;3.92;;;;;;;17.20;59.43;96553.22;10349932;28;20398;-25
2023/01/07 10:51:53;;;;;;;13.73;3.90;;;;;;;17.22;59.07;96543.94;10352175;28;20116;-25
2023/01/07 10:56:59;;;;;;;5.88;2.40;;;;;;;17.29;58.47;96538.06;10349946;28;20540;-22
2023/01/07 11:02:01;;;;;;;7.65;2.50;;;;;;;17.35;58.30;96533.00;10366399;28;20061;-26
2023/01/07 11:07:27;;;;;;;9.07;2.40;;;;;;;17.35;55.73;96529.63;10357519;28;20064;-26
2023/01/07 11:12:41;;;;;;;4.25;1.58;;;;;;;17.35;55.86;96519.50;10352252;28;20039;-24
2023/01/07 11:17:49;;;;;;;4.72;1.50;;;;;;;17.30;56.68;96513.59;10348811;28;20521;-25
2023/01/07 11:22:50;;;;;;;3.47;1.20;;;;;;;17.24;55.57;96516.94;10339084;28;20471;-25
2023/01/07 11:27:50;;;;;;;3.60;1.70;;;;;;;17.33;54.71;96495.91;10360715;28;20045;-26
2023/01/07 11:33:05;;;;;;;3.77;1.43;;;;;;;17.38;55.99;96489.16;10359416;28;20044;-24
2023/01/07 11:38:31;;;;;;;6.35;1.58;;;;;;;17.46;56.27;96477.34;10349370;28;20030;-24
2023/01/07 11:43:38;;;;;;;5.28;2.13;;;;;;;17.47;55.58;96468.91;10365761;28;20033;-25
2023/01/07 11:48:45;;;;;;;4.68;1.65;;;;;;;17.50;55.40;96458.81;10362309;28;20025;-27
2023/01/07 11:53:55;;;;;;;5.07;1.88;;;;;;;17.55;54.43;96446.97;10348723;28;20038;-25
2023/01/07 11:59:10;;;;;;;3.90;1.88;;;;;;;17.54;54.45;96440.25;10363879;28;20100;-26
2023/01/07 12:04:31;;;;;;;3.05;2.00;;;;;;;17.52;54.23;96421.69;10376091;28;20569;-26
2023/01/07 12:09:36;;;;;;;4.00;1.48;;;;;;;17.50;53.83;96424.22;10360215;28;20040;-25
2023/01/07 12:14:37;;;;;;;7.30;1.80;;;;;;;17.48;55.78;96417.50;10369336;28;20521;-26
2023/01/07 12:20:03;;;;;;;6.03;2.25;;;;;;;17.53;53.26;96408.19;10385517;28;20053;-26
2023/01/07 12:25:08;;;;;;;5.22;3.20;;;;;;;17.59;53.19;96403.13;10365038;28;20046;-26
2023/01/07 12:30:49;;;;;;;18.65;2.40;;;;;;;17.88;53.75;96397.16;10369237;28;20047;-26
2023/01/07 12:35:51;;;;;;;4.28;1.63;;;;;;;17.82;53.17;96391.25;10374142;28;20512;-26
2023/01/07 12:41:00;;;;;;;12.43;2.65;;;;;;;17.79;53.58;96386.19;10363932;28;20033;-27
2023/01/07 12:46:04;;;;;;;6.97;2.38;;;;;;;17.75;53.11;96371.88;10366839;28;20030;-28
2023/01/07 12:51:27;;;;;;;2.17;1.13;;;;;;;17.73;52.53;96371.84;10355409;28;20484;-26
2023/01/07 12:56:34;;;;;;;5.30;1.33;;;;;;;17.64;52.81;96365.97;10358455;28;20022;-25
2023/01/07 13:01:40;;;;;;;6.90;1.15;;;;;;;17.55;50.34;96355.88;10365052;28;20052;-25
2023/01/07 13:06:54;;;;;;;5.27;1.50;;;;;;;17.52;50.91;96346.63;10352293;28;20096;-24
2023/01/07 13:17:31;;;;;;;8.43;1.37;;;;;;;17.50;52.67;96352.53;10355293;28;20030;-26
2023/01/07 13:22:45;;;;;;;5.63;2.00;;;;;;;17.49;52.61;96345.78;10355642;28;20289;-25
2023/01/07 13:28:06;;;;;;;4.40;1.60;;;;;;;17.49;52.75;96351.66;10354644;28;20311;-26
2023/01/07 13:33:06;;;;;;;10.02;3.05;;;;;;;17.47;56.60;96343.25;10369628;28;20049;-26
2023/01/07 13:38:33;;;;;;;22.33;3.00;;;;;;;17.45;57.58;96350.00;10345397;28;20394;-26
2023/01/07 13:43:42;;;;;;;5.85;2.40;;;;;;;17.43;57.70;96341.56;10344798;28;20042;-26
2023/01/07 13:48:48;;;;;;;11.98;3.10;;;;;;;17.45;57.11;96349.13;10361234;28;20449;-26
2023/01/07 13:53:49;;;;;;;5.45;3.03;;;;;;;17.46;57.22;96338.16;10363453;28;20033;-25
2023/01/07 13:58:59;;;;;;;6.77;2.93;;;;;;;17.40;58.36;96333.97;10354287;28;20046;-25
2023/01/07 14:04:05;;;;;;;4.88;2.38;;;;;;;17.44;55.65;96332.28;10381084;28;20108;-26
2023/01/07 14:09:05;;;;;;;15.68;4.82;;;;;;;17.41;59.75;96339.88;10372307;28;20051;-25
2023/01/07 14:14:36;;;;;;;22.15;5.15;;;;;;;17.39;59.32;96326.38;10384431;28;20037;-26
2023/01/07 14:20:09;;;;;;;12.80;4.75;;;;;;;17.39;60.37;96331.44;10358298;28;20639;-25
2023/01/07 14:25:24;;;;;;;15.35;4.38;;;;;;;17.37;60.45;96335.66;10357415;28;20029;-26
2023/01/07 14:30:30;;;;;;;10.52;3.05;;;;;;;17.35;57.10;96333.13;10349533;28;20041;-24
2023/01/07 14:35:34;;;;;;;21.58;4.53;;;;;;;17.31;54.32;96338.19;10356090;28;20039;-26
2023/01/07 14:40:39;;;;;;;23.65;6.18;;;;;;;17.30;60.58;96333.94;10364331;28;20046;-26
2023/01/07 14:45:39;;;;;;;15.90;5.10;;;;;;;17.28;61.57;96338.19;10366313;28;20037;-26
2023/01/07 14:50:50;;;;;;;14.30;4.55;;;;;;;17.26;60.81;96338.16;10366237;28;20034;-26
2023/01/07 14:56:11;;;;;;;13.40;4.28;;;;;;;17.26;61.76;96337.34;10368098;28;20033;-24
2023/01/07 15:01:23;;;;;;;13.15;4.00;;;;;;;17.23;61.13;96347.47;10360033;28;20113;-27
2023/01/07 15:06:34;;;;;;;8.95;4.05;;;;;;;17.25;61.25;96348.31;10365860;28;20049;-25
2023/01/07 15:16:55;;;;;;;11.70;4.18;;;;;;;17.24;61.04;96344.94;10361453;28;20116;-27
2023/01/07 15:22:07;;;;;;;13.43;3.75;;;;;;;17.23;61.32;96347.47;10373924;28;20113;-25
2023/01/07 15:27:21;;;;;;;6.82;3.38;;;;;;;17.23;61.20;96337.34;10375328;28;20073;-25
2023/01/07 15:32:53;;;;;;;13.05;3.67;;;;;;;17.22;61.49;96335.66;10374133;28;20037;-26
2023/01/07 15:37:53;;;;;;;7.75;3.55;;;;;;;17.22;61.67;96345.75;10362766;28;20069;-26
2023/01/07 15:42:56;;;;;;;6.93;3.33;;;;;;;17.21;61.96;96337.34;10389529;28;20165;-27
2023/01/07 15:48:06;;;;;;;6.97;3.63;;;;;;;17.22;61.46;96345.75;10374588;28;20048;-27
2023/01/07 15:53:10;;;;;;;6.15;3.17;;;;;;;17.24;61.15;96344.94;10371849;28;20042;-26
2023/01/07 15:58:20;;;;;;;18.95;4.20;;;;;;;17.21;61.55;96354.19;10370728;28;20038;-26
2023/01/07 16:03:23;;;;;;;12.00;4.80;;;;;;;17.16;60.32;96345.78;10378124;28;20026;-27
2023/01/07 16:08:32;;;;;;;10.73;5.43;;;;;;;17.21;61.29;96328.91;10369627;28;20034;-26
2023/01/07 16:13:33;;;;;;;10.93;4.72;;;;;;;17.24;60.89;96328.91;10367268;28;20695;-26
2023/01/07 16:18:34;;;;;;;13.45;5.47;;;;;;;17.25;61.60;96323.84;10391652;28;20037;-24
2023/01/07 16:23:36;;;;;;;9.43;5.03;;;;;;;17.22;61.50;96312.88;10369910;28;20399;-26
2023/01/07 16:28:47;;;;;;;15.40;5.65;;;;;;;17.29;61.60;96328.06;10371505;28;20029;-24
2023/01/07 16:33:52;;;;;;;19.00;11.55;;;;;;;17.29;60.97;96322.16;10368633;28;20034;-26
2023/01/07 16:38:56;;;;;;;25.17;14.70;;;;;;;17.28;60.81;96310.34;10376300;28;20127;-24
2023/01/07 16:43:58;;;;;;;23.42;13.98;;;;;;;17.29;60.82;96314.56;10393027;28;20057;-25
2023/01/07 16:49:10;;;;;;;20.45;14.63;;;;;;;17.31;61.14;96315.41;10367114;28;20056;-24
2023/01/07 16:54:16;;;;;;;35.05;18.65;;;;;;;17.30;60.83;96303.59;10348901;28;20041;-27
2023/01/07 16:59:19;;;;;;;31.95;19.15;;;;;;;17.29;61.06;96302.75;10368652;28;20038;-25
2023/01/07 17:04:24;;;;;;;27.55;16.98;;;;;;;17.29;61.47;96289.25;10363314;28;20072;-25
2023/01/07 17:09:33;;;;;;;19.45;12.48;;;;;;;17.39;58.53;96290.94;10374147;28;20061;-26
2023/01/07 17:14:34;;;;;;;19.70;12.63;;;;;;;17.36;58.21;96275.78;10365407;28;20076;-26
2023/01/07 17:19:39;;;;;;;23.65;13.63;;;;;;;17.39;59.54;96268.19;10370651;28;20064;-25
2023/01/07 17:24:40;;;;;;;18.35;11.70;;;;;;;17.45;57.35;96268.16;10366792;28;20032;-25
2023/01/07 17:29:41;;;;;;;20.70;11.87;;;;;;;17.48;56.96;96276.59;10387164;28;20029;-26
2023/01/07 17:34:41;;;;;;;19.20;12.85;;;;;;;17.49;58.64;96277.44;10369541;28;20026;-26
2023/01/07 17:39:43;;;;;;;19.10;10.35;;;;;;;17.53;57.03;96268.97;10374805;28;20555;-25
2023/01/07 17:44:44;;;;;;;17.27;11.30;;;;;;;17.56;56.85;96281.66;10382099;28;20026;-33
2023/01/07 17:49:44;;;;;;;16.90;11.90;;;;;;;17.59;57.65;96281.63;10365518;28;20247;-25
2023/01/07 17:54:45;;;;;;;20.05;12.52;;;;;;;17.65;57.26;96279.09;10356100;28;20653;-25
2023/01/07 17:59:46;;;;;;;17.33;11.90;;;;;;;17.63;56.67;96283.28;10359158;28;20025;-27
2023/01/07 18:04:47;;;;;;;22.40;13.15;;;;;;;17.65;56.41;96276.56;10382607;28;20092;-25
2023/01/07 18:09:47;;;;;;;19.97;13.43;;;;;;;17.66;56.52;96275.69;10380210;28;20451;-25
2023/01/07 18:14:47;;;;;;;15.43;10.87;;;;;;;17.63;56.31;96279.06;10366886;28;20521;-25
2023/01/07 18:19:49;;;;;;;20.90;13.00;;;;;;;17.55;55.11;96274.88;10356647;28;20037;-25
2023/01/07 18:24:50;;;;;;;19.50;14.43;;;;;;;17.52;55.27;96272.38;10361972;28;20045;-26
2023/01/07 18:29:52;;;;;;;23.20;13.98;;;;;;;17.55;54.65;96282.47;10360419;28;20042;-26
2023/01/07 18:34:53;;;;;;;29.88;21.00;;;;;;;17.62;55.02;96274.00;10357524;28;20405;-25
2023/01/07 18:39:53;;;;;;;45.83;33.27;;;;;;;17.67;54.54;96274.84;10370916;28;20039;-26
2023/01/07 18:44:53;;;;;;;58.50;39.60;;;;;;;17.62;53.72;96261.34;10378807;28;20037;-25
2023/01/07 18:49:54;;;;;;;63.87;44.63;;;;;;;17.59;53.84;96261.38;10382888;28;20183;-25
2023/01/07 18:54:54;;;;;;;67.90;47.03;;;;;;;17.56;53.39;96266.47;10366040;28;20061;-27
2023/01/07 18:59:54;;;;;;;78.67;56.37;;;;;;;17.55;52.95;96260.53;10363447;28;20034;-26
2023/01/07 19:04:55;;;;;;;87.63;62.27;;;;;;;17.54;53.11;96258.88;10364981;28;20103;-27
2023/01/07 19:09:55;;;;;;;85.47;62.70;;;;;;;17.55;53.18;96257.16;10373684;28;20041;-27
2023/01/07 19:14:55;;;;;;;82.17;58.90;;;;;;;17.53;52.66;96266.44;10369313;28;20046;-25
2023/01/07 19:19:56;;;;;;;75.70;56.80;;;;;;;17.52;52.11;96260.56;10365174;28;20050;-24
2023/01/07 19:24:56;;;;;;;72.10;50.63;;;;;;;17.62;53.74;96272.34;10366945;28;20300;-25
2023/01/07 19:29:56;;;;;;;67.43;51.67;;;;;;;17.66;53.08;96257.97;10364434;28;20052;-25
2023/01/07 19:34:57;;;;;;;62.47;47.90;;;;;;;17.61;53.32;96247.00;10357476;28;20296;-25
2023/01/07 19:39:57;;;;;;;61.60;46.93;;;;;;;17.54;52.79;96260.53;10371716;28;20121;-25
2023/01/07 19:44:57;;;;;;;57.10;42.70;;;;;;;17.54;52.16;96246.22;10380510;28;20034;-26
2023/01/07 19:49:58;;;;;;;55.78;40.90;;;;;;;17.49;51.86;96234.44;10361570;28;20099;-27
2023/01/07 19:54:58;;;;;;;57.20;42.13;;;;;;;17.47;51.48;96238.63;10363783;28;20034;-24
2023/01/07 19:59:58;;;;;;;49.65;37.97;;;;;;;17.43;51.55;96234.44;10353983;28;20420;-27
2023/01/07 20:04:59;;;;;;;48.17;35.67;;;;;;;17.39;51.38;96231.06;10359434;28;20048;-25
2023/01/07 20:10:00;;;;;;;49.43;35.80;;;;;;;17.40;51.53;96239.53;10368387;28;20037;-26
2023/01/07 20:15:00;;;;;;;46.65;33.75;;;;;;;17.50;53.55;96236.09;10360160;28;20034;-27
2023/01/07 20:20:01;;;;;;;43.67;31.77;;;;;;;17.52;51.63;96235.25;10363734;28;20038;-26
2023/01/07 20:25:01;;;;;;;38.43;28.17;;;;;;;17.46;50.89;96239.47;10383240;28;20042;-26
2023/01/07 20:30:03;;;;;;;34.53;26.67;;;;;;;17.42;50.99;96237.81;10370310;28;20048;-27
2023/01/07 20:35:04;;;;;;;31.10;24.38;;;;;;;17.39;50.97;96217.56;10373320;28;20092;-25
2023/01/07 20:40:05;;;;;;;31.27;24.15;;;;;;;17.39;51.00;96207.44;10368444;28;20073;-25
2023/01/07 20:45:06;;;;;;;29.95;23.23;;;;;;;17.41;50.80;96203.25;10362995;28;20044;-27
2023/01/07 20:50:08;;;;;;;29.30;23.02;;;;;;;17.42;50.59;96202.41;10382474;28;20041;-26
2023/01/07 20:55:09;;;;;;;29.65;21.05;;;;;;;17.43;50.04;96199.88;10366494;28;20131;-26
2023/01/07 21:00:10;;;;;;;26.47;20.60;;;;;;;17.51;50.52;96204.88;10357478;28;20044;-26
2023/01/07 21:05:10;;;;;;;26.95;21.48;;;;;;;17.58;51.00;96214.13;10368961;28;20061;-27
2023/01/07 21:10:11;;;;;;;26.33;19.73;;;;;;;17.58;50.55;96221.72;10369132;28;20112;-26
2023/01/07 21:15:13;;;;;;;22.10;16.98;;;;;;;17.53;50.34;96208.25;10364843;28;20034;-25
2023/01/07 21:20:14;;;;;;;21.25;16.75;;;;;;;17.49;50.23;96201.53;10364767;28;20121;-25
2023/01/07 21:25:15;;;;;;;19.17;15.82;;;;;;;17.48;50.00;96205.72;10366429;28;20567;-25
2023/01/07 21:30:16;;;;;;;19.92;14.98;;;;;;;17.49;49.99;96209.13;10362391;28;20124;-26
2023/01/07 21:35:17;;;;;;;16.48;14.02;;;;;;;17.44;49.79;96193.97;10367697;28;20541;-26
2023/01/07 21:40:18;;;;;;;18.02;14.38;;;;;;;17.43;49.95;96187.22;10375953;28;20045;-27
2023/01/07 21:45:20;;;;;;;17.67;13.30;;;;;;;17.44;49.70;96182.97;10377628;28;20091;-27
2023/01/07 21:50:21;;;;;;;15.05;12.95;;;;;;;17.44;49.75;96185.50;10361717;28;20802;-25
2023/01/07 21:55:21;;;;;;;26.97;18.23;;;;;;;17.58;51.74;96179.53;10359804;28;20094;-27
2023/01/07 22:00:22;;;;;;;28.35;21.23;;;;;;;17.64;52.69;96178.66;10356692;28;20037;-25
2023/01/07 22:05:22;;;;;;;18.60;13.70;;;;;;;17.60;50.37;96182.06;10359478;28;20061;-26
2023/01/07 22:10:22;;;;;;;14.67;11.70;;;;;;;17.53;50.24;96175.34;10371715;28;20041;-25
2023/01/07 22:15:23;;;;;;;14.83;10.63;;;;;;;17.50;49.52;96181.25;10381699;28;20041;-25
2023/01/07 22:20:23;;;;;;;11.10;9.90;;;;;;;17.44;49.85;96180.44;10371150;28;20426;-26
2023/01/07 22:25:23;;;;;;;12.77;9.53;;;;;;;17.43;49.56;96189.75;10365216;28;20304;-25
2023/01/07 22:30:27;;;;;;;11.00;8.90;;;;;;;17.41;49.32;96176.22;10358104;28;20121;-26
2023/01/07 22:35:28;;;;;;;10.98;8.57;;;;;;;17.39;49.66;96187.19;10370374;28;20309;-25
2023/01/07 22:40:33;;;;;;;9.60;8.13;;;;;;;17.38;49.26;96171.19;10368977;28;20033;-27
2023/01/07 22:45:56;;;;;;;11.88;9.48;;;;;;;17.43;50.97;96166.97;10368196;28;20296;-25
2023/01/07 22:51:01;;;;;;;21.33;16.10;;;;;;;17.55;53.93;96159.31;10359262;28;20104;-25
2023/01/07 22:56:03;;;;;;;12.10;9.47;;;;;;;17.55;50.79;96133.13;10370558;28;20046;-26
2023/01/07 23:01:03;;;;;;;9.52;7.97;;;;;;;17.51;49.64;96141.63;10357511;28;20033;-26
2023/01/07 23:06:04;;;;;;;10.68;7.97;;;;;;;17.44;49.27;96135.75;10357291;28;20505;-27
2023/01/07 23:11:05;;;;;;;9.43;7.40;;;;;;;17.43;48.99;96135.75;10366711;28;20042;-26
2023/01/07 23:16:06;;;;;;;9.50;7.13;;;;;;;17.42;49.26;96141.66;10359001;28;20034;-25
2023/01/07 23:21:06;;;;;;;11.20;7.60;;;;;;;17.40;49.02;96138.31;10363619;28;20036;-26
2023/01/07 23:26:07;;;;;;;8.43;6.60;;;;;;;17.41;49.22;96130.69;10365326;28;20038;-28
2023/01/07 23:31:09;;;;;;;7.53;5.90;;;;;;;17.37;49.03;96126.50;10364459;28;20870;-27
2023/01/07 23:36:10;;;;;;;6.97;5.63;;;;;;;17.39;49.00;96129.00;10364479;28;20343;-25
2023/01/07 23:41:11;;;;;;;12.20;8.25;;;;;;;17.44;49.91;96109.59;10371629;28;20088;-24